Ecokeeper — SVTY — position and weather

sailwx.info

Track history (hours):
 
Tides and Currents Weather Stations Pressure Air Temp Water Temp Dewpoint Dewpoint Depression Visibility Wind Speed Wind Dir Waves Ship Positions

Ecokeeper

Last reported at 2017-Jan-18 13:33 UTC. Time now 2017-Jan-18 18:10 UTC.
Position N 37°57' E 023°34'.

Length 90 m; draft 4.2 m.

Type: Tanker. MMSI: 240689000.

Date/timePositionNaut miles runAvg speedWind from/ knotsBaromVisibWave heightAir tempDewpointWater temp
2017-Jan-18 13:33N 37°57' E 023°34'3 3.5
2017-Jan-18 12:33N 37°54' E 023°37'9 8.8
2017-Jan-18 11:33N 37°47' E 023°42'8 8.4
2017-Jan-18 10:33N 37°40' E 023°48'8 8.2
2017-Jan-18 09:33N 37°37' E 023°57'8 8.4
2017-Jan-18 08:33N 37°38' E 024°08'10 8.7
2017-Jan-18 07:27N 37°45' E 024°16'  
2017-Jan-14 16:28N 37°36' E 023°52'7 7.0
2017-Jan-14 15:32N 37°38' E 023°44'7 7.2
2017-Jan-14 14:33N 37°45' E 023°40'8 7.6
2017-Jan-14 13:33N 37°51' E 023°36'6 5.8
2017-Jan-14 12:33N 37°57' E 023°34'0 0.1
2017-Jan-14 11:33N 37°57' E 023°34'  
2017-Jan-11 04:07N 37°57' E 023°34'1 0.9
2017-Jan-11 03:33N 37°57' E 023°34'2 1.9
2017-Jan-11 02:33N 37°57' E 023°37'0 0.0
2017-Jan-11 01:33N 37°57' E 023°37'0 0.0
2017-Jan-11 00:33N 37°57' E 023°37'0 0.0
2017-Jan-10 23:33N 37°57' E 023°37'0 0.0
2017-Jan-10 22:33N 37°57' E 023°37'0 0.0
2017-Jan-10 21:33N 37°57' E 023°37'0 0.0
2017-Jan-10 20:33N 37°57' E 023°37'0 0.0
2017-Jan-10 19:33N 37°57' E 023°37'0 0.0
2017-Jan-10 18:33N 37°57' E 023°37'0 0.0
2017-Jan-10 17:33N 37°57' E 023°37'0 0.0
2017-Jan-10 16:33N 37°57' E 023°37'0 0.0
2017-Jan-10 15:33N 37°57' E 023°37'0 0.0
2017-Jan-10 14:33N 37°57' E 023°37'4 3.9
2017-Jan-10 13:33N 37°54' E 023°33'1 0.8
2017-Jan-10 12:33N 37°53' E 023°33'0 0.0
2017-Jan-10 11:33N 37°53' E 023°33'0 0.0
2017-Jan-10 10:33N 37°53' E 023°33'0 0.0
2017-Jan-10 09:33N 37°53' E 023°33'3 3.0
2017-Jan-10 08:33N 37°56' E 023°34'1 0.1
2017-Jan-09 13:22N 37°57' E 023°34'2 2.7
2017-Jan-09 12:33N 37°55' E 023°33'4 3.8
2017-Jan-09 11:33N 37°52' E 023°30'0 0.0
2017-Jan-09 10:33N 37°52' E 023°30'0 0.0
2017-Jan-09 09:33N 37°52' E 023°30'0 0.1
2017-Jan-09 08:33N 37°52' E 023°30'0 0.0
2017-Jan-09 07:33N 37°52' E 023°30'6 0.4
2017-Jan-08 16:33N 37°57' E 023°34'6 6.3
2017-Jan-08 15:33N 37°51' E 023°31'1 1.2
2017-Jan-08 14:33N 37°50' E 023°31'0 0.0
2017-Jan-08 13:33N 37°50' E 023°31'  
Track history (hours):
 
Tides and Currents Weather Stations Pressure Air Temp Water Temp Dewpoint Dewpoint Depression Visibility Wind Speed Wind Dir Waves Ship Positions

Ecokeeper

Last reported at 2017-Jan-18 13:33 UTC. Time now 2017-Jan-18 18:10 UTC.
Position N 37°57' E 023°34'.

Length 90 m; draft 4.2 m.

Type: Tanker. MMSI: 240689000.

Date/timePositionNaut miles runAvg speedWind from/ knotsBaromVisibWave heightAir tempDewpointWater temp
2017-Jan-18 13:33N 37°57' E 023°34'3 3.5
2017-Jan-18 12:33N 37°54' E 023°37'9 8.8
2017-Jan-18 11:33N 37°47' E 023°42'8 8.4
2017-Jan-18 10:33N 37°40' E 023°48'8 8.2
2017-Jan-18 09:33N 37°37' E 023°57'8 8.4
2017-Jan-18 08:33N 37°38' E 024°08'10 8.7
2017-Jan-18 07:27N 37°45' E 024°16'  
2017-Jan-14 16:28N 37°36' E 023°52'7 7.0
2017-Jan-14 15:32N 37°38' E 023°44'7 7.2
2017-Jan-14 14:33N 37°45' E 023°40'8 7.6
2017-Jan-14 13:33N 37°51' E 023°36'6 5.8
2017-Jan-14 12:33N 37°57' E 023°34'0 0.1
2017-Jan-14 11:33N 37°57' E 023°34'  
2017-Jan-11 04:07N 37°57' E 023°34'1 0.9
2017-Jan-11 03:33N 37°57' E 023°34'2 1.9
2017-Jan-11 02:33N 37°57' E 023°37'0 0.0
2017-Jan-11 01:33N 37°57' E 023°37'0 0.0
2017-Jan-11 00:33N 37°57' E 023°37'0 0.0
2017-Jan-10 23:33N 37°57' E 023°37'0 0.0
2017-Jan-10 22:33N 37°57' E 023°37'0 0.0
2017-Jan-10 21:33N 37°57' E 023°37'0 0.0
2017-Jan-10 20:33N 37°57' E 023°37'0 0.0
2017-Jan-10 19:33N 37°57' E 023°37'0 0.0
2017-Jan-10 18:33N 37°57' E 023°37'0 0.0
2017-Jan-10 17:33N 37°57' E 023°37'0 0.0
2017-Jan-10 16:33N 37°57' E 023°37'0 0.0
2017-Jan-10 15:33N 37°57' E 023°37'0 0.0
2017-Jan-10 14:33N 37°57' E 023°37'4 3.9
2017-Jan-10 13:33N 37°54' E 023°33'1 0.8
2017-Jan-10 12:33N 37°53' E 023°33'0 0.0
2017-Jan-10 11:33N 37°53' E 023°33'0 0.0
2017-Jan-10 10:33N 37°53' E 023°33'0 0.0
2017-Jan-10 09:33N 37°53' E 023°33'3 3.0
2017-Jan-10 08:33N 37°56' E 023°34'1 0.1
2017-Jan-09 13:22N 37°57' E 023°34'2 2.7
2017-Jan-09 12:33N 37°55' E 023°33'4 3.8
2017-Jan-09 11:33N 37°52' E 023°30'0 0.0
2017-Jan-09 10:33N 37°52' E 023°30'0 0.0
2017-Jan-09 09:33N 37°52' E 023°30'0 0.1
2017-Jan-09 08:33N 37°52' E 023°30'0 0.0
2017-Jan-09 07:33N 37°52' E 023°30'6 0.4
2017-Jan-08 16:33N 37°57' E 023°34'6 6.3
2017-Jan-08 15:33N 37°51' E 023°31'1 1.2
2017-Jan-08 14:33N 37°50' E 023°31'0 0.0
2017-Jan-08 13:33N 37°50' E 023°31'  

Dump ship's entire track history